Time;durP1;ratioP1;P1;durP2;ratioP2;P2;SDS_P1;SDS_P2;PMS_P1;PMS_P2;Temp;Humidity;BMP_temperature;BMP_pressure;BME280_temperature;BME280_humidity;BME280_pressure;Samples;Min_cycle;Max_cycle;Signal;HPM_P1;HPM_P2
2021/11/27 00:02:36;;;;;;;12.23;10.53;;;;;;;4.38;100.00;98727.59;6191163;28;20588;-61
2021/11/27 00:05:59;;;;;;;9.70;8.80;;;;;;;4.24;100.00;98727.84;6188945;28;20237;-61
2021/11/27 00:09:20;;;;;;;11.97;10.10;;;;;;;4.41;100.00;98723.25;6189198;28;20312;-61
2021/11/27 00:12:41;;;;;;;10.73;9.73;;;;;;;3.97;100.00;98724.81;6192429;28;21335;-62
2021/11/27 00:16:03;;;;;;;10.80;9.13;;;;;;;4.03;100.00;98718.72;6189141;28;20246;-61
2021/11/27 00:19:24;;;;;;;17.57;10.90;;;;;;;4.21;100.00;98721.03;6191039;28;20326;-61
2021/11/27 00:22:45;;;;;;;13.10;9.60;;;;;;;4.09;100.00;98714.34;6188553;28;20221;-62
2021/11/27 00:26:09;;;;;;;12.63;11.33;;;;;;;4.37;100.00;98710.44;6186535;28;20230;-61
2021/11/27 00:29:29;;;;;;;12.00;10.77;;;;;;;4.38;100.00;98719.88;6190012;28;20329;-62
2021/11/27 00:32:52;;;;;;;10.83;9.73;;;;;;;4.03;100.00;98717.03;6192313;28;20313;-62
2021/11/27 00:36:14;;;;;;;13.50;9.87;;;;;;;3.99;100.00;98712.78;6177076;28;20317;-62
2021/11/27 00:39:35;;;;;;;12.70;10.97;;;;;;;3.88;100.00;98715.53;6189778;28;20612;-62
2021/11/27 00:42:57;;;;;;;11.37;10.37;;;;;;;3.88;100.00;98714.69;6189222;28;20232;-62
2021/11/27 00:46:18;;;;;;;12.07;10.97;;;;;;;4.41;100.00;98694.06;6189927;28;20225;-61
2021/11/27 00:49:41;;;;;;;11.20;9.90;;;;;;;4.38;100.00;98694.97;6190584;28;21814;-62
2021/11/27 00:53:04;;;;;;;12.00;10.80;;;;;;;4.45;100.00;98696.53;6190112;28;20225;-61
2021/11/27 00:56:25;;;;;;;11.60;9.50;;;;;;;4.37;100.00;98687.25;6189017;28;20237;-62
2021/11/27 00:59:46;;;;;;;13.87;11.47;;;;;;;4.18;100.00;98692.72;6180380;28;20400;-62
2021/11/27 01:03:10;;;;;;;11.57;10.37;;;;;;;4.34;100.00;98694.16;6173895;28;20340;-61
2021/11/27 01:06:34;;;;;;;14.20;11.63;;;;;;;4.36;100.00;98695.84;6186848;28;20253;-61
2021/11/27 01:09:55;;;;;;;11.43;10.23;;;;;;;4.62;100.00;98687.66;6186711;28;20226;-61
2021/11/27 01:13:16;;;;;;;9.83;8.90;;;;;;;4.61;100.00;98691.94;6188915;28;20238;-61
2021/11/27 01:16:39;;;;;;;11.40;10.27;;;;;;;4.87;98.74;98683.72;6188794;28;20361;-62
2021/11/27 01:20:00;;;;;;;13.07;10.77;;;;;;;4.67;100.00;98681.53;6185302;28;20229;-61
2021/11/27 01:23:23;;;;;;;12.70;11.20;;;;;;;4.72;99.64;98678.84;6188877;28;20508;-60
2021/11/27 01:26:45;;;;;;;12.67;10.93;;;;;;;4.34;100.00;98685.56;6189253;28;20230;-61
2021/11/27 01:30:09;;;;;;;10.50;9.50;;;;;;;4.31;100.00;98683.91;6175947;28;20312;-61
2021/11/27 01:33:32;;;;;;;9.90;8.90;;;;;;;4.57;100.00;98684.31;6186956;28;20230;-61
2021/11/27 01:36:53;;;;;;;10.93;9.77;;;;;;;4.45;100.00;98680.22;6163221;28;20226;-61
2021/11/27 01:40:19;;;;;;;12.43;9.47;;;;;;;4.24;99.95;98687.44;6173982;28;20300;-61
2021/11/27 01:43:40;;;;;;;10.23;9.30;;;;;;;4.44;100.00;98681.97;6187673;28;20324;-61
2021/11/27 01:47:01;;;;;;;10.97;9.87;;;;;;;4.46;98.71;98671.59;6163706;28;20225;-61
2021/11/27 01:50:24;;;;;;;12.37;10.43;;;;;;;4.67;97.93;98680.66;6183775;28;20234;-61
2021/11/27 01:53:56;;;;;;;12.77;10.63;;;;;;;4.53;99.23;98676.63;6170264;28;20225;-62
2021/11/27 01:57:18;;;;;;;11.00;9.93;;;;;;;4.48;98.61;98675.03;6187377;28;20230;-61
2021/11/27 02:00:42;;;;;;;10.53;9.47;;;;;;;4.45;97.88;98683.66;6170572;28;20257;-61
2021/11/27 02:04:07;;;;;;;16.73;12.23;;;;;;;4.53;98.04;98681.78;6182749;28;20257;-62
2021/11/27 02:07:29;;;;;;;12.90;11.07;;;;;;;4.57;98.35;98684.31;6174241;28;20233;-62
2021/11/27 02:10:49;;;;;;;12.77;11.47;;;;;;;4.64;98.39;98685.91;6184644;28;20233;-61
2021/11/27 02:14:12;;;;;;;11.73;9.70;;;;;;;4.84;96.81;98685.50;6184841;28;20237;-61
2021/11/27 02:17:53;;;;;;;10.87;9.77;;;;;;;4.52;97.33;98682.66;6171049;28;20229;-63
2021/11/27 02:21:17;;;;;;;13.43;12.03;;;;;;;4.80;96.55;98692.44;6183897;28;20230;-61
2021/11/27 02:24:38;;;;;;;11.93;9.87;;;;;;;4.63;96.78;98694.50;6187563;28;20233;-61
2021/11/27 02:28:01;;;;;;;11.87;10.63;;;;;;;4.63;97.54;98686.75;6166015;28;20262;-61
2021/11/27 02:31:24;;;;;;;10.73;9.73;;;;;;;4.43;97.38;98692.28;6175853;28;20229;-61
2021/11/27 02:34:46;;;;;;;10.87;9.70;;;;;;;4.51;98.26;98678.38;6185059;28;20234;-61
2021/11/27 02:38:08;;;;;;;10.50;9.40;;;;;;;4.79;95.73;98685.59;6181124;28;20241;-61
2021/11/27 02:41:30;;;;;;;13.67;10.03;;;;;;;4.63;95.65;98684.19;6183407;28;20225;-62
2021/11/27 02:44:51;;;;;;;13.20;10.53;;;;;;;4.60;95.12;98679.94;6188877;28;20226;-61
2021/11/27 02:48:13;;;;;;;10.77;9.67;;;;;;;4.49;97.58;98679.28;6186351;28;20477;-62
2021/11/27 02:51:34;;;;;;;11.70;10.47;;;;;;;4.84;94.98;98678.59;6169618;28;20284;-61
2021/11/27 02:54:56;;;;;;;12.27;10.77;;;;;;;4.67;95.58;98675.50;6186287;28;20237;-61
2021/11/27 02:58:17;;;;;;;12.00;10.53;;;;;;;4.81;94.42;98680.41;6186713;28;20335;-61
2021/11/27 03:01:43;;;;;;;12.37;10.63;;;;;;;4.67;96.11;98672.94;6186850;28;20218;-62
2021/11/27 03:05:05;;;;;;;14.50;11.87;;;;;;;4.62;96.96;98669.63;6183321;28;20238;-61
2021/11/27 03:08:26;;;;;;;15.23;11.30;;;;;;;4.30;98.84;98673.63;6177233;28;20252;-61
2021/11/27 03:11:52;;;;;;;13.27;11.83;;;;;;;4.65;97.21;98672.13;6187598;28;20233;-61
2021/11/27 03:15:15;;;;;;;13.50;12.10;;;;;;;4.91;96.26;98675.03;6183376;28;20571;-61
2021/11/27 03:18:36;;;;;;;13.93;11.97;;;;;;;4.48;96.33;98660.41;6172915;28;20245;-61
2021/11/27 03:21:57;;;;;;;15.60;13.57;;;;;;;4.72;96.48;98673.69;6173646;28;20233;-61
2021/11/27 03:25:21;;;;;;;13.93;12.63;;;;;;;4.63;97.09;98679.03;6173994;28;20233;-61
2021/11/27 03:28:43;;;;;;;14.83;12.20;;;;;;;4.89;95.93;98681.94;6191922;28;20226;-61
2021/11/27 03:32:09;;;;;;;17.03;13.07;;;;;;;4.99;95.24;98681.78;6190050;28;20234;-61
2021/11/27 03:35:40;;;;;;;15.03;13.43;;;;;;;4.96;95.05;98687.81;6172942;28;20590;-61
2021/11/27 03:39:03;;;;;;;15.17;13.07;;;;;;;4.78;96.64;98683.88;6175333;28;20229;-62
2021/11/27 03:42:24;;;;;;;14.80;13.00;;;;;;;4.80;96.14;98689.88;6175199;28;20237;-60
2021/11/27 03:45:47;;;;;;;14.97;12.80;;;;;;;4.39;99.06;98686.34;6190373;28;20222;-60
2021/11/27 03:49:09;;;;;;;14.00;12.60;;;;;;;4.80;97.35;98692.44;6160296;28;20257;-60
2021/11/27 03:52:33;;;;;;;14.77;12.93;;;;;;;4.84;96.83;98678.59;6169565;28;21019;-61
2021/11/27 03:55:55;;;;;;;14.90;13.30;;;;;;;4.96;95.79;98679.25;6174136;28;20237;-62
2021/11/27 03:59:17;;;;;;;13.60;12.20;;;;;;;4.85;97.16;98680.31;6173347;28;20229;-61
2021/11/27 04:02:40;;;;;;;16.07;13.37;;;;;;;4.83;96.99;98684.66;6190740;28;20230;-60
2021/11/27 04:06:02;;;;;;;16.50;13.07;;;;;;;4.99;96.42;98686.94;6157475;28;20239;-61
2021/11/27 04:09:25;;;;;;;15.77;13.37;;;;;;;4.70;98.58;98688.34;6174678;28;20768;-61
2021/11/27 04:12:46;;;;;;;16.27;14.57;;;;;;;4.34;99.25;98690.72;6192287;28;20230;-61
2021/11/27 04:16:08;;;;;;;14.63;12.90;;;;;;;4.40;100.00;98700.94;6185295;28;20238;-61
2021/11/27 04:19:31;;;;;;;16.47;14.73;;;;;;;4.57;100.00;98692.88;6187137;28;20325;-61
2021/11/27 04:22:52;;;;;;;17.77;14.33;;;;;;;4.26;100.00;98701.16;6187814;28;20249;-61
2021/11/27 04:26:13;;;;;;;16.53;13.97;;;;;;;4.48;100.00;98701.66;6186983;28;20248;-61
2021/11/27 04:29:35;;;;;;;19.13;14.90;;;;;;;4.36;100.00;98704.44;6186406;28;20230;-61
2021/11/27 04:32:57;;;;;;;19.17;15.43;;;;;;;4.19;100.00;98699.59;6190474;28;20234;-62
2021/11/27 04:36:27;;;;;;;17.47;14.40;;;;;;;4.38;100.00;98700.13;6188978;28;20796;-61
2021/11/27 04:39:47;;;;;;;17.03;14.30;;;;;;;4.49;100.00;98711.06;6186422;28;20627;-61
2021/11/27 04:43:08;;;;;;;16.03;14.20;;;;;;;4.82;100.00;98706.16;6174634;28;20245;-62
2021/11/27 04:46:29;;;;;;;16.00;13.37;;;;;;;4.60;99.61;98707.47;6174816;28;20324;-62
2021/11/27 04:49:50;;;;;;;16.13;14.43;;;;;;;4.71;99.91;98713.25;6187321;28;20230;-62
2021/11/27 04:53:13;;;;;;;16.30;14.57;;;;;;;4.72;99.42;98709.81;6173348;28;20225;-61
2021/11/27 04:56:35;;;;;;;16.27;14.07;;;;;;;4.43;99.76;98708.59;6187518;28;20320;-61
2021/11/27 04:59:56;;;;;;;17.47;14.87;;;;;;;4.57;99.80;98725.56;6187495;28;20250;-61
2021/11/27 05:03:17;;;;;;;19.83;16.33;;;;;;;4.70;99.18;98722.72;6188814;28;20634;-61
2021/11/27 05:06:38;;;;;;;17.03;15.23;;;;;;;4.68;98.04;98721.91;6159089;28;20230;-59
2021/11/27 05:10:01;;;;;;;18.07;13.90;;;;;;;4.59;99.24;98722.06;6186271;28;20241;-61
2021/11/27 05:13:23;;;;;;;21.67;13.90;;;;;;;4.61;100.00;98727.19;6190070;28;20239;-61
2021/11/27 05:16:44;;;;;;;16.90;14.03;;;;;;;4.71;99.45;98726.13;6183817;28;20230;-61
2021/11/27 05:20:06;;;;;;;15.67;13.30;;;;;;;4.86;98.56;98728.44;6172437;28;20218;-61
2021/11/27 05:23:27;;;;;;;17.17;15.33;;;;;;;4.85;97.67;98729.31;6181024;28;20497;-61
2021/11/27 05:26:50;;;;;;;18.37;14.90;;;;;;;5.06;97.09;98734.94;6187159;28;20261;-61
2021/11/27 05:30:30;;;;;;;16.80;14.83;;;;;;;4.92;97.52;98736.06;6187167;28;20238;-62
2021/11/27 05:34:21;;;;;;;17.37;14.90;;;;;;;4.86;97.73;98733.59;6190453;28;20229;-61
2021/11/27 05:37:45;;;;;;;20.30;16.60;;;;;;;4.74;98.53;98744.16;6175821;28;20234;-61
2021/11/27 05:41:06;;;;;;;15.47;13.83;;;;;;;4.64;99.08;98752.94;6189948;28;20226;-62
2021/11/27 05:44:28;;;;;;;18.80;15.13;;;;;;;4.75;99.99;98745.84;6186216;28;22895;-61
2021/11/27 05:47:49;;;;;;;15.63;14.00;;;;;;;4.57;100.00;98741.88;6188586;28;20511;-61
2021/11/27 05:51:16;;;;;;;16.50;14.07;;;;;;;4.92;98.99;98742.94;6187899;28;20229;-62
2021/11/27 05:54:37;;;;;;;21.23;15.70;;;;;;;4.82;98.53;98747.41;6179964;28;20229;-62
2021/11/27 05:57:59;;;;;;;16.73;14.50;;;;;;;4.79;98.46;98747.50;6187499;28;20328;-61
2021/11/27 06:01:21;;;;;;;17.53;14.33;;;;;;;4.84;98.99;98758.56;6185836;28;20245;-61
2021/11/27 06:04:41;;;;;;;16.80;15.00;;;;;;;4.81;99.08;98761.22;6190233;28;20230;-61
2021/11/27 06:08:02;;;;;;;17.83;14.83;;;;;;;4.76;100.00;98768.16;6192065;28;20234;-62
2021/11/27 06:11:23;;;;;;;19.43;16.73;;;;;;;4.90;98.82;98761.03;6186876;28;20226;-61
2021/11/27 06:14:44;;;;;;;19.07;15.73;;;;;;;4.89;99.13;98768.81;6187958;28;20321;-61
2021/11/27 06:18:06;;;;;;;17.37;15.33;;;;;;;4.98;98.22;98767.78;6189640;28;20623;-61
2021/11/27 06:21:27;;;;;;;14.73;13.10;;;;;;;4.98;97.60;98765.19;6184997;28;20230;-61
2021/11/27 06:24:48;;;;;;;17.73;15.80;;;;;;;4.78;99.10;98765.56;6185230;28;20230;-60
2021/11/27 06:28:09;;;;;;;16.77;15.00;;;;;;;4.67;99.81;98774.34;6187202;28;20226;-61
2021/11/27 06:31:30;;;;;;;19.00;15.77;;;;;;;4.89;99.36;98782.56;6179006;28;20237;-61
2021/11/27 06:34:53;;;;;;;18.23;15.07;;;;;;;4.83;99.04;98787.81;6177237;28;20222;-61
2021/11/27 06:38:14;;;;;;;18.50;15.40;;;;;;;4.89;98.74;98779.97;6186431;28;21077;-60
2021/11/27 06:41:36;;;;;;;15.73;14.03;;;;;;;4.98;98.41;98793.56;6185895;28;20234;-61
2021/11/27 06:45:24;;;;;;;17.10;14.83;;;;;;;5.09;97.62;98792.47;6167616;28;20264;-62
2021/11/27 06:48:58;;;;;;;15.90;13.80;;;;;;;5.01;98.29;98794.38;6161428;28;20233;-61
2021/11/27 06:52:21;;;;;;;23.30;16.23;;;;;;;4.71;99.36;98799.22;6185242;28;20233;-61
2021/11/27 06:55:42;;;;;;;16.60;14.57;;;;;;;4.79;99.44;98801.66;6186556;28;20226;-61
2021/11/27 06:59:03;;;;;;;16.97;14.13;;;;;;;4.77;99.21;98811.16;6185543;28;20229;-61
2021/11/27 07:02:26;;;;;;;18.80;14.70;;;;;;;4.80;99.67;98820.56;6177648;28;20523;-61
2021/11/27 07:06:07;;;;;;;18.43;15.80;;;;;;;4.64;99.63;98828.53;6182275;28;20611;-61
2021/11/27 07:09:33;;;;;;;17.47;15.20;;;;;;;5.04;98.41;98825.28;6168140;28;20222;-62
2021/11/27 07:13:19;;;;;;;17.63;14.77;;;;;;;4.97;98.58;98833.16;6180734;28;20512;-61
2021/11/27 07:16:42;;;;;;;17.47;15.53;;;;;;;4.95;98.53;98834.91;6169855;28;20225;-61
2021/11/27 07:20:06;;;;;;;18.40;15.53;;;;;;;4.65;100.00;98847.44;6178951;28;20257;-60
2021/11/27 07:23:27;;;;;;;16.93;14.80;;;;;;;4.90;100.00;98840.13;6177085;28;20245;-61
2021/11/27 07:26:50;;;;;;;19.43;16.40;;;;;;;4.89;99.18;98839.28;6177960;28;20222;-62
2021/11/27 07:30:11;;;;;;;18.43;14.67;;;;;;;4.87;100.00;98843.63;6175187;28;20254;-61
2021/11/27 07:33:38;;;;;;;19.10;14.60;;;;;;;4.76;99.86;98845.53;6182635;28;20618;-61
2021/11/27 07:37:00;;;;;;;16.77;14.37;;;;;;;4.88;99.37;98837.56;6177247;28;20289;-61
2021/11/27 07:40:21;;;;;;;19.23;15.50;;;;;;;4.90;100.00;98842.72;6181153;28;20226;-61
2021/11/27 07:43:43;;;;;;;18.57;15.23;;;;;;;4.89;98.79;98844.44;6176965;28;20233;-62
2021/11/27 07:47:13;;;;;;;18.97;15.80;;;;;;;4.89;98.80;98852.19;6175469;28;20230;-60
2021/11/27 07:50:53;;;;;;;17.47;14.80;;;;;;;4.98;98.78;98858.06;6179900;28;20229;-61
2021/11/27 07:54:17;;;;;;;17.27;13.63;;;;;;;5.26;98.14;98851.53;6166231;28;20619;-61
2021/11/27 07:57:38;;;;;;;17.93;16.03;;;;;;;5.45;96.01;98848.59;6184217;28;20242;-61
2021/11/27 08:01:01;;;;;;;20.50;17.30;;;;;;;5.23;96.60;98858.47;6182161;28;20752;-61
2021/11/27 08:04:22;;;;;;;18.57;15.93;;;;;;;5.30;96.24;98857.47;6186175;28;20672;-62
2021/11/27 08:07:43;;;;;;;18.27;15.30;;;;;;;5.25;96.73;98867.91;6182983;28;20218;-62
2021/11/27 08:11:04;;;;;;;16.97;15.17;;;;;;;5.55;95.24;98863.03;6186157;28;20229;-62
2021/11/27 08:14:32;;;;;;;17.27;15.40;;;;;;;5.47;95.23;98873.50;6188142;28;20226;-61
2021/11/27 08:17:54;;;;;;;16.67;15.03;;;;;;;5.39;95.45;98874.50;6182601;28;20230;-61
2021/11/27 08:21:15;;;;;;;19.60;17.27;;;;;;;5.35;96.00;98878.03;6190085;28;20352;-61
2021/11/27 08:24:36;;;;;;;17.70;15.47;;;;;;;5.42;95.52;98887.38;6187886;28;20503;-61
2021/11/27 08:27:57;;;;;;;18.20;16.30;;;;;;;5.49;95.80;98874.31;6185640;28;20229;-61
2021/11/27 08:31:19;;;;;;;20.60;16.03;;;;;;;5.52;95.43;98881.16;6174493;28;20581;-62
2021/11/27 08:34:41;;;;;;;17.43;14.23;;;;;;;5.52;95.31;98888.88;6174544;28;20229;-62
2021/11/27 08:38:02;;;;;;;17.57;14.87;;;;;;;5.39;96.65;98890.00;6179508;28;21419;-62
2021/11/27 08:41:23;;;;;;;17.77;15.30;;;;;;;5.64;95.10;98887.78;6178874;28;20503;-61
2021/11/27 08:44:43;;;;;;;20.07;15.80;;;;;;;5.79;93.85;98887.50;6189379;28;20229;-62
2021/11/27 08:48:06;;;;;;;17.57;15.67;;;;;;;5.77;93.85;98886.69;6180676;28;20345;-61
2021/11/27 08:51:28;;;;;;;20.30;16.70;;;;;;;5.89;92.45;98885.56;6187476;28;20489;-61
2021/11/27 08:54:49;;;;;;;20.07;16.93;;;;;;;5.97;92.30;98882.84;6185371;28;20364;-61
2021/11/27 08:58:10;;;;;;;20.47;16.33;;;;;;;5.88;93.02;98886.47;6188565;28;20253;-60
2021/11/27 09:01:31;;;;;;;20.27;17.10;;;;;;;5.87;92.78;98895.09;6184109;28;20660;-61
2021/11/27 09:04:52;;;;;;;20.77;16.63;;;;;;;5.92;92.59;98896.69;6188863;28;20544;-61
2021/11/27 09:08:14;;;;;;;24.20;18.10;;;;;;;5.76;93.55;98894.44;6179316;28;20238;-62
2021/11/27 09:11:35;;;;;;;17.67;15.50;;;;;;;5.40;94.44;98907.22;6181055;28;20233;-61
2021/11/27 09:14:57;;;;;;;18.20;15.10;;;;;;;5.52;94.69;98912.13;6180534;28;20261;-61
2021/11/27 09:18:18;;;;;;;18.20;15.40;;;;;;;5.62;94.28;98908.50;6182468;28;20226;-62
2021/11/27 09:21:39;;;;;;;19.93;16.30;;;;;;;5.88;93.58;98918.31;6177258;28;20238;-61
2021/11/27 09:25:02;;;;;;;20.30;17.83;;;;;;;5.89;93.69;98914.88;6177265;28;20340;-61
2021/11/27 09:28:24;;;;;;;20.90;16.07;;;;;;;5.94;92.43;98913.91;6179949;28;20737;-61
2021/11/27 09:31:45;;;;;;;18.30;14.97;;;;;;;5.95;91.71;98916.47;6178654;28;20226;-61
2021/11/27 09:35:07;;;;;;;17.77;14.97;;;;;;;5.85;91.32;98927.84;6177124;28;20230;-62
2021/11/27 09:38:29;;;;;;;17.70;15.83;;;;;;;5.62;93.09;98926.59;6178159;28;20545;-61
2021/11/27 09:41:58;;;;;;;18.80;16.80;;;;;;;5.50;93.42;98935.38;6178118;28;20638;-61
2021/11/27 09:45:23;;;;;;;21.77;16.77;;;;;;;5.88;93.39;98938.13;6173499;28;20371;-62
2021/11/27 09:48:48;;;;;;;18.33;16.37;;;;;;;5.85;92.73;98938.19;6178101;28;20237;-61
2021/11/27 09:52:10;;;;;;;18.63;15.80;;;;;;;5.41;93.74;98945.03;6186834;28;20241;-61
2021/11/27 09:55:31;;;;;;;17.97;13.70;;;;;;;6.04;100.00;98944.72;6182270;28;20237;-62
2021/11/27 09:58:55;;;;;;;17.00;15.17;;;;;;;6.01;95.64;98938.75;6179379;28;20230;-62
2021/11/27 10:02:18;;;;;;;18.33;15.47;;;;;;;5.94;92.91;98943.19;6175211;28;20225;-61
2021/11/27 10:05:39;;;;;;;16.77;15.00;;;;;;;5.97;92.91;98937.13;6182326;28;20233;-62
2021/11/27 10:09:02;;;;;;;18.80;15.57;;;;;;;5.82;91.73;98940.84;6185036;28;20258;-62
2021/11/27 10:12:23;;;;;;;20.40;16.83;;;;;;;6.08;90.89;98940.34;6182724;28;20230;-61
2021/11/27 10:15:45;;;;;;;18.93;15.17;;;;;;;5.79;91.92;98938.31;6178987;28;20241;-61
2021/11/27 10:19:08;;;;;;;16.27;14.57;;;;;;;5.90;91.73;98947.56;6185142;28;20813;-61
2021/11/27 10:22:45;;;;;;;20.77;16.97;;;;;;;6.11;90.53;98942.88;6174724;28;20234;-61
2021/11/27 10:26:07;;;;;;;17.43;14.13;;;;;;;5.70;92.25;98944.53;6185227;28;20220;-61
2021/11/27 10:29:29;;;;;;;18.77;16.77;;;;;;;5.89;91.86;98945.00;6184116;28;20230;-61
2021/11/27 10:32:52;;;;;;;18.13;14.20;;;;;;;5.95;91.42;98942.31;6182749;28;20226;-62
2021/11/27 10:36:13;;;;;;;18.57;16.33;;;;;;;5.96;90.91;98949.19;6180044;28;20256;-62
2021/11/27 10:39:34;;;;;;;17.87;15.00;;;;;;;5.89;91.97;98945.00;6177399;28;20238;-60
2021/11/27 10:42:58;;;;;;;18.63;15.20;;;;;;;6.17;90.63;98939.31;6179139;28;20336;-63
2021/11/27 10:46:26;;;;;;;18.70;16.77;;;;;;;6.21;89.59;98941.78;6176830;28;20254;-62
2021/11/27 10:49:50;;;;;;;17.77;15.87;;;;;;;6.07;90.42;98949.84;6161632;28;20345;-60
2021/11/27 10:53:12;;;;;;;17.60;13.93;;;;;;;6.13;90.72;98943.69;6177365;28;20226;-61
2021/11/27 10:56:42;;;;;;;16.07;14.43;;;;;;;6.05;90.55;98943.84;6175109;28;20252;-61
2021/11/27 11:00:08;;;;;;;17.80;15.13;;;;;;;5.83;91.07;98951.13;6173171;28;20248;-61
2021/11/27 11:03:31;;;;;;;17.53;15.63;;;;;;;5.55;93.22;98949.97;6171061;28;20237;-61
2021/11/27 11:07:13;;;;;;;18.07;16.03;;;;;;;5.59;93.60;98959.38;6180351;28;20234;-62
2021/11/27 11:10:35;;;;;;;17.57;15.73;;;;;;;5.25;94.31;98957.38;6179783;28;20238;-61
2021/11/27 11:13:58;;;;;;;17.73;15.23;;;;;;;5.66;93.20;98959.22;6178273;28;20531;-62
2021/11/27 11:17:26;;;;;;;18.47;16.33;;;;;;;5.61;94.07;98961.03;6179408;28;20230;-61
2021/11/27 11:20:49;;;;;;;20.07;15.93;;;;;;;5.76;93.24;98961.59;6181594;28;20237;-62
2021/11/27 11:24:23;;;;;;;16.77;14.87;;;;;;;5.80;93.54;98960.69;6186871;28;20666;-62
2021/11/27 11:27:45;;;;;;;18.33;16.10;;;;;;;5.31;94.49;98973.63;6180284;28;20225;-60
2021/11/27 11:31:08;;;;;;;17.23;15.43;;;;;;;4.93;96.03;98966.50;6183577;28;20233;-60
2021/11/27 11:34:29;;;;;;;18.10;16.20;;;;;;;5.08;97.05;98976.56;6184811;28;20324;-61
2021/11/27 11:37:51;;;;;;;16.20;14.50;;;;;;;4.99;98.15;98975.88;6186826;28;20568;-62
2021/11/27 11:41:15;;;;;;;16.63;14.13;;;;;;;5.16;97.13;98968.72;6184075;28;20535;-62
2021/11/27 11:44:37;;;;;;;15.43;13.83;;;;;;;5.08;97.49;98975.72;6188963;28;20233;-61
2021/11/27 11:47:59;;;;;;;14.73;13.27;;;;;;;5.49;95.70;98977.59;6187037;28;20529;-62
2021/11/27 11:51:36;;;;;;;16.47;13.20;;;;;;;5.64;94.53;98973.03;6182822;28;20230;-63
2021/11/27 11:55:00;;;;;;;15.03;13.37;;;;;;;5.52;94.48;98979.25;6189912;28;20222;-61
2021/11/27 11:58:31;;;;;;;18.93;17.07;;;;;;;5.67;93.63;98981.56;6187054;28;20233;-62
2021/11/27 12:02:15;;;;;;;15.47;13.53;;;;;;;5.46;95.88;98984.53;6157926;28;20233;-62
2021/11/27 12:05:37;;;;;;;16.37;14.07;;;;;;;5.69;94.26;98991.88;6169343;28;20226;-62
2021/11/27 12:09:05;;;;;;;17.40;14.00;;;;;;;5.26;95.33;98990.06;6180585;28;20218;-61
2021/11/27 12:12:26;;;;;;;16.10;13.03;;;;;;;5.25;95.42;98996.94;6188978;28;20245;-61
2021/11/27 12:15:49;;;;;;;16.37;13.03;;;;;;;5.01;95.37;98993.03;6181040;28;20230;-61
2021/11/27 12:19:11;;;;;;;13.67;12.07;;;;;;;5.42;95.39;99000.97;6187701;28;20257;-62
2021/11/27 12:22:39;;;;;;;14.70;13.23;;;;;;;5.19;94.18;98999.59;6188492;28;20234;-61
2021/11/27 12:26:21;;;;;;;15.17;13.23;;;;;;;5.16;94.48;98996.22;6154693;28;66865;-61
2021/11/27 12:30:05;;;;;;;14.50;11.93;;;;;;;4.86;94.96;98996.66;6185979;28;20233;-62
2021/11/27 12:34:01;;;;;;;14.87;13.27;;;;;;;5.04;94.87;99002.44;6185453;28;22189;-61
2021/11/27 12:37:26;;;;;;;13.37;12.03;;;;;;;5.21;93.55;98991.84;6182559;28;20321;-62
2021/11/27 12:40:48;;;;;;;13.57;12.17;;;;;;;5.39;93.36;99001.88;6186794;28;20230;-61
2021/11/27 12:44:28;;;;;;;14.70;12.43;;;;;;;5.44;92.88;99006.94;6187998;28;20249;-61
2021/11/27 12:47:49;;;;;;;14.07;12.67;;;;;;;5.03;92.60;99001.59;6181671;28;20677;-61
2021/11/27 12:51:24;;;;;;;13.67;12.13;;;;;;;5.22;92.32;99002.16;6184255;28;20234;-60
2021/11/27 12:54:48;;;;;;;15.67;12.83;;;;;;;4.96;93.52;99006.84;6180106;28;20237;-60
2021/11/27 12:58:31;;;;;;;10.70;9.70;;;;;;;5.30;98.46;99002.88;6182820;28;20222;-61
2021/11/27 13:01:53;;;;;;;12.30;11.03;;;;;;;5.41;95.71;99014.75;6179901;28;20509;-60
2021/11/27 13:05:14;;;;;;;10.37;9.37;;;;;;;5.21;92.73;99012.50;6177386;28;20332;-61
2021/11/27 13:08:39;;;;;;;10.83;9.73;;;;;;;4.48;95.16;99016.13;6178238;28;20262;-62
2021/11/27 13:12:00;;;;;;;11.07;9.97;;;;;;;4.88;94.94;99015.56;6182958;28;20261;-63
2021/11/27 13:15:21;;;;;;;10.93;9.93;;;;;;;4.99;94.79;99018.00;6186340;28;20225;-62
2021/11/27 13:18:52;;;;;;;9.87;8.97;;;;;;;5.07;94.29;99016.13;6186729;28;20225;-62
2021/11/27 13:22:16;;;;;;;10.23;9.23;;;;;;;5.19;92.40;99016.81;6183626;28;20500;-64
2021/11/27 13:25:40;;;;;;;10.27;9.27;;;;;;;5.21;92.31;99025.41;6180334;28;20238;-64
2021/11/27 13:29:01;;;;;;;9.73;8.77;;;;;;;5.25;90.39;99020.19;6181979;28;20241;-64
2021/11/27 13:32:24;;;;;;;10.83;9.77;;;;;;;5.17;91.00;99032.34;6185641;28;20234;-63
2021/11/27 13:35:45;;;;;;;9.57;8.70;;;;;;;5.21;90.78;99031.41;6188207;28;20225;-64
2021/11/27 13:39:24;;;;;;;12.17;10.97;;;;;;;5.34;90.17;99034.66;6184950;28;20253;-63
2021/11/27 13:42:47;;;;;;;11.10;9.90;;;;;;;5.15;91.58;99038.41;6191236;28;20233;-65
2021/11/27 13:46:08;;;;;;;9.17;8.27;;;;;;;4.98;90.31;99046.38;6177361;28;20575;-66
2021/11/27 13:49:34;;;;;;;10.07;9.00;;;;;;;5.01;91.63;99046.34;6184968;28;20458;-64
2021/11/27 13:52:56;;;;;;;10.47;9.37;;;;;;;4.80;91.78;99043.19;6192430;28;20237;-65
2021/11/27 13:56:17;;;;;;;10.13;9.23;;;;;;;4.68;92.12;99048.53;6183199;28;20234;-64
2021/11/27 13:59:40;;;;;;;9.87;8.97;;;;;;;4.48;92.20;99046.22;6175454;28;20233;-67
2021/11/27 14:03:02;;;;;;;11.03;9.93;;;;;;;4.52;93.91;99042.72;6177960;28;20238;-65
2021/11/27 14:06:23;;;;;;;11.13;9.77;;;;;;;4.50;93.17;99052.22;6172998;28;20333;-63
2021/11/27 14:09:53;;;;;;;11.00;9.90;;;;;;;4.57;93.69;99046.06;6172746;28;20753;-62
2021/11/27 14:13:14;;;;;;;13.82;12.63;;;;;;;4.48;93.58;99051.38;6172252;28;21182;-63
2021/11/27 14:16:42;;;;;;;12.00;10.80;;;;;;;4.47;94.54;99055.66;6174268;28;20242;-62
2021/11/27 14:20:19;;;;;;;14.63;13.33;;;;;;;4.46;94.17;99056.53;6169500;28;21117;-63
2021/11/27 14:23:44;;;;;;;14.13;12.90;;;;;;;4.60;94.26;99060.69;6171959;28;20779;-62
2021/11/27 14:27:06;;;;;;;14.88;13.57;;;;;;;4.71;94.49;99064.81;6164776;28;21670;-63
2021/11/27 14:30:29;;;;;;;10.97;9.93;;;;;;;4.87;93.28;99055.13;6179476;28;20222;-63
2021/11/27 14:34:01;;;;;;;13.67;12.33;;;;;;;5.01;92.44;99056.66;6171428;28;20237;-62
2021/11/27 14:37:21;;;;;;;13.43;11.80;;;;;;;5.25;93.76;99058.91;6178624;28;20236;-63
2021/11/27 14:40:58;;;;;;;13.27;11.97;;;;;;;5.31;91.43;99063.09;6181782;28;20336;-63
2021/11/27 14:44:28;;;;;;;13.77;12.27;;;;;;;5.07;92.93;99056.59;6176666;28;20309;-63
2021/11/27 14:47:49;;;;;;;13.57;12.17;;;;;;;5.00;92.81;99065.28;6176923;28;20319;-63
2021/11/27 14:51:11;;;;;;;15.67;13.10;;;;;;;4.94;92.84;99066.22;6182589;28;20234;-63
2021/11/27 14:54:34;;;;;;;14.90;13.27;;;;;;;4.72;94.33;99078.56;6174915;28;20242;-64
2021/11/27 14:57:56;;;;;;;14.47;13.00;;;;;;;4.69;95.00;99081.16;6174703;28;20233;-64
2021/11/27 15:01:16;;;;;;;14.70;13.27;;;;;;;4.69;95.12;99088.91;6180260;28;20313;-64
2021/11/27 15:04:37;;;;;;;16.33;14.83;;;;;;;4.74;95.99;99074.22;6159556;28;20241;-65
2021/11/27 15:08:00;;;;;;;17.10;14.13;;;;;;;4.85;95.65;99082.69;6172668;28;20447;-63
2021/11/27 15:11:21;;;;;;;13.83;12.37;;;;;;;5.01;94.92;99078.16;6173123;28;20784;-63
2021/11/27 15:14:42;;;;;;;16.00;14.30;;;;;;;5.16;94.09;99077.09;6175532;28;20225;-64
2021/11/27 15:18:03;;;;;;;16.37;14.23;;;;;;;5.07;93.86;99087.53;6175544;28;20233;-64
2021/11/27 15:21:24;;;;;;;16.73;13.77;;;;;;;4.98;94.68;99087.66;6174927;28;20242;-64
2021/11/27 15:24:50;;;;;;;15.80;14.27;;;;;;;4.92;95.27;99086.91;6175269;28;20214;-63
2021/11/27 15:28:11;;;;;;;14.97;13.13;;;;;;;4.88;95.50;99092.94;6185658;28;20233;-64
2021/11/27 15:31:33;;;;;;;15.00;13.40;;;;;;;5.10;95.87;99097.84;6181443;28;20229;-63
2021/11/27 15:34:54;;;;;;;15.83;14.20;;;;;;;5.08;95.09;99097.00;6184324;28;20665;-64
2021/11/27 15:38:15;;;;;;;15.77;14.07;;;;;;;5.11;95.65;99102.09;6182627;28;20257;-62
2021/11/27 15:41:37;;;;;;;14.40;12.93;;;;;;;5.26;94.93;99104.47;6176030;28;20542;-61
2021/11/27 15:44:58;;;;;;;16.10;13.30;;;;;;;5.26;94.02;99109.63;6189023;28;20229;-62
2021/11/27 15:48:19;;;;;;;14.83;13.23;;;;;;;5.44;93.17;99107.66;6174618;28;20233;-62